sensor_id;sensor_type;location;lat;lon;timestamp;P1;durP1;ratioP1;P2;durP2;ratioP2
70303;SDS011;57712;48.752;11.348;2022-07-29T00:00:55;7.65;;;3.60;;
70303;SDS011;57712;48.752;11.348;2022-07-29T00:03:22;5.45;;;3.40;;
70303;SDS011;57712;48.752;11.348;2022-07-29T00:05:48;6.90;;;4.10;;
70303;SDS011;57712;48.752;11.348;2022-07-29T00:08:15;7.77;;;4.00;;
70303;SDS011;57712;48.752;11.348;2022-07-29T00:10:41;7.60;;;3.80;;
70303;SDS011;57712;48.752;11.348;2022-07-29T00:13:08;6.90;;;4.40;;
70303;SDS011;57712;48.752;11.348;2022-07-29T00:15:35;8.10;;;4.40;;
70303;SDS011;57712;48.752;11.348;2022-07-29T00:18:01;7.70;;;4.07;;
70303;SDS011;57712;48.752;11.348;2022-07-29T00:20:28;6.93;;;4.10;;
70303;SDS011;57712;48.752;11.348;2022-07-29T00:22:54;8.68;;;4.63;;
70303;SDS011;57712;48.752;11.348;2022-07-29T00:25:21;10.05;;;4.93;;
70303;SDS011;57712;48.752;11.348;2022-07-29T00:27:47;8.02;;;4.25;;
70303;SDS011;57712;48.752;11.348;2022-07-29T00:30:14;6.57;;;4.50;;
70303;SDS011;57712;48.752;11.348;2022-07-29T00:32:40;7.77;;;4.47;;
70303;SDS011;57712;48.752;11.348;2022-07-29T00:35:07;7.13;;;4.47;;
70303;SDS011;57712;48.752;11.348;2022-07-29T00:37:53;7.57;;;4.60;;
70303;SDS011;57712;48.752;11.348;2022-07-29T00:40:20;7.32;;;4.50;;
70303;SDS011;57712;48.752;11.348;2022-07-29T00:42:50;7.43;;;4.63;;
70303;SDS011;57712;48.752;11.348;2022-07-29T00:45:18;7.60;;;4.73;;
70303;SDS011;57712;48.752;11.348;2022-07-29T00:47:46;8.02;;;4.60;;
70303;SDS011;57712;48.752;11.348;2022-07-29T00:50:12;7.60;;;4.75;;
70303;SDS011;57712;48.752;11.348;2022-07-29T00:52:40;7.72;;;4.68;;
70303;SDS011;57712;48.752;11.348;2022-07-29T00:55:09;7.45;;;4.72;;
70303;SDS011;57712;48.752;11.348;2022-07-29T00:57:40;7.93;;;4.37;;
70303;SDS011;57712;48.752;11.348;2022-07-29T01:00:08;7.30;;;4.32;;
70303;SDS011;57712;48.752;11.348;2022-07-29T01:02:37;6.30;;;4.20;;
70303;SDS011;57712;48.752;11.348;2022-07-29T01:05:04;6.32;;;4.13;;
70303;SDS011;57712;48.752;11.348;2022-07-29T01:07:32;7.97;;;4.47;;
70303;SDS011;57712;48.752;11.348;2022-07-29T01:10:02;7.97;;;4.30;;
70303;SDS011;57712;48.752;11.348;2022-07-29T01:12:30;7.60;;;4.43;;
70303;SDS011;57712;48.752;11.348;2022-07-29T01:15:00;7.20;;;4.93;;
70303;SDS011;57712;48.752;11.348;2022-07-29T01:17:32;7.20;;;4.22;;
70303;SDS011;57712;48.752;11.348;2022-07-29T01:25:47;8.77;;;4.50;;
70303;SDS011;57712;48.752;11.348;2022-07-29T01:31:12;8.50;;;4.55;;
70303;SDS011;57712;48.752;11.348;2022-07-29T01:33:55;8.02;;;4.28;;
70303;SDS011;57712;48.752;11.348;2022-07-29T01:39:08;8.45;;;4.40;;
70303;SDS011;57712;48.752;11.348;2022-07-29T01:41:40;7.78;;;4.57;;
70303;SDS011;57712;48.752;11.348;2022-07-29T01:44:18;6.22;;;3.60;;
70303;SDS011;57712;48.752;11.348;2022-07-29T01:46:49;6.70;;;4.28;;
70303;SDS011;57712;48.752;11.348;2022-07-29T01:49:21;6.33;;;4.17;;
70303;SDS011;57712;48.752;11.348;2022-07-29T01:51:58;7.15;;;4.10;;
70303;SDS011;57712;48.752;11.348;2022-07-29T01:54:36;6.32;;;4.32;;
70303;SDS011;57712;48.752;11.348;2022-07-29T01:57:13;7.22;;;4.10;;
70303;SDS011;57712;48.752;11.348;2022-07-29T01:59:40;6.97;;;4.45;;
70303;SDS011;57712;48.752;11.348;2022-07-29T02:02:09;6.37;;;3.67;;
70303;SDS011;57712;48.752;11.348;2022-07-29T02:04:39;6.60;;;4.70;;
70303;SDS011;57712;48.752;11.348;2022-07-29T02:07:07;7.85;;;5.15;;
70303;SDS011;57712;48.752;11.348;2022-07-29T02:09:40;6.75;;;4.03;;
70303;SDS011;57712;48.752;11.348;2022-07-29T02:12:07;7.03;;;4.82;;
70303;SDS011;57712;48.752;11.348;2022-07-29T02:14:39;8.67;;;4.73;;
70303;SDS011;57712;48.752;11.348;2022-07-29T02:17:09;7.90;;;4.30;;
70303;SDS011;57712;48.752;11.348;2022-07-29T02:19:38;8.27;;;5.30;;
70303;SDS011;57712;48.752;11.348;2022-07-29T02:22:07;7.00;;;4.45;;
70303;SDS011;57712;48.752;11.348;2022-07-29T02:24:36;9.05;;;5.15;;
70303;SDS011;57712;48.752;11.348;2022-07-29T02:27:06;8.00;;;5.17;;
70303;SDS011;57712;48.752;11.348;2022-07-29T02:29:34;7.78;;;5.07;;
70303;SDS011;57712;48.752;11.348;2022-07-29T02:32:01;9.10;;;5.80;;
70303;SDS011;57712;48.752;11.348;2022-07-29T02:34:29;7.93;;;5.35;;
70303;SDS011;57712;48.752;11.348;2022-07-29T02:36:57;8.05;;;5.10;;
70303;SDS011;57712;48.752;11.348;2022-07-29T02:39:24;9.23;;;5.53;;
70303;SDS011;57712;48.752;11.348;2022-07-29T02:42:03;8.13;;;5.18;;
70303;SDS011;57712;48.752;11.348;2022-07-29T02:44:33;7.40;;;5.18;;
70303;SDS011;57712;48.752;11.348;2022-07-29T02:55:19;7.10;;;4.35;;
70303;SDS011;57712;48.752;11.348;2022-07-29T02:57:55;8.18;;;4.55;;
70303;SDS011;57712;48.752;11.348;2022-07-29T03:00:28;8.85;;;4.80;;
70303;SDS011;57712;48.752;11.348;2022-07-29T03:02:58;9.10;;;4.93;;
70303;SDS011;57712;48.752;11.348;2022-07-29T03:05:27;7.07;;;4.33;;
70303;SDS011;57712;48.752;11.348;2022-07-29T03:08:12;7.22;;;4.45;;
70303;SDS011;57712;48.752;11.348;2022-07-29T03:10:42;7.90;;;4.00;;
70303;SDS011;57712;48.752;11.348;2022-07-29T03:13:11;7.80;;;4.13;;
70303;SDS011;57712;48.752;11.348;2022-07-29T03:15:39;7.22;;;4.30;;
70303;SDS011;57712;48.752;11.348;2022-07-29T03:18:08;6.43;;;3.70;;
70303;SDS011;57712;48.752;11.348;2022-07-29T03:20:36;5.88;;;3.95;;
70303;SDS011;57712;48.752;11.348;2022-07-29T03:23:03;6.90;;;4.43;;
70303;SDS011;57712;48.752;11.348;2022-07-29T03:25:30;8.13;;;4.00;;
70303;SDS011;57712;48.752;11.348;2022-07-29T03:27:57;7.20;;;3.78;;
70303;SDS011;57712;48.752;11.348;2022-07-29T03:30:23;6.53;;;4.03;;
70303;SDS011;57712;48.752;11.348;2022-07-29T03:32:50;7.70;;;3.80;;
70303;SDS011;57712;48.752;11.348;2022-07-29T03:35:18;6.47;;;3.97;;
70303;SDS011;57712;48.752;11.348;2022-07-29T03:37:46;5.93;;;3.58;;
70303;SDS011;57712;48.752;11.348;2022-07-29T03:40:22;7.95;;;3.58;;
70303;SDS011;57712;48.752;11.348;2022-07-29T03:42:51;7.63;;;3.63;;
70303;SDS011;57712;48.752;11.348;2022-07-29T03:45:21;6.93;;;3.72;;
70303;SDS011;57712;48.752;11.348;2022-07-29T03:47:50;6.65;;;3.55;;
70303;SDS011;57712;48.752;11.348;2022-07-29T03:50:26;6.13;;;3.60;;
70303;SDS011;57712;48.752;11.348;2022-07-29T03:52:54;6.28;;;3.65;;
70303;SDS011;57712;48.752;11.348;2022-07-29T03:55:21;6.27;;;3.97;;
70303;SDS011;57712;48.752;11.348;2022-07-29T03:57:49;6.07;;;3.55;;
70303;SDS011;57712;48.752;11.348;2022-07-29T04:00:16;6.35;;;3.78;;
70303;SDS011;57712;48.752;11.348;2022-07-29T04:02:43;6.18;;;3.80;;
70303;SDS011;57712;48.752;11.348;2022-07-29T04:05:14;7.70;;;5.30;;
70303;SDS011;57712;48.752;11.348;2022-07-29T04:07:45;6.03;;;3.63;;
70303;SDS011;57712;48.752;11.348;2022-07-29T04:10:13;6.20;;;3.50;;
70303;SDS011;57712;48.752;11.348;2022-07-29T04:12:41;8.48;;;4.38;;
70303;SDS011;57712;48.752;11.348;2022-07-29T04:15:08;6.50;;;4.00;;
70303;SDS011;57712;48.752;11.348;2022-07-29T04:17:35;7.15;;;4.47;;
70303;SDS011;57712;48.752;11.348;2022-07-29T04:20:02;7.27;;;4.40;;
70303;SDS011;57712;48.752;11.348;2022-07-29T04:22:29;7.75;;;4.72;;
70303;SDS011;57712;48.752;11.348;2022-07-29T04:24:56;7.88;;;4.93;;
70303;SDS011;57712;48.752;11.348;2022-07-29T04:27:28;8.30;;;4.57;;
70303;SDS011;57712;48.752;11.348;2022-07-29T04:29:55;8.20;;;5.55;;
70303;SDS011;57712;48.752;11.348;2022-07-29T04:32:23;7.73;;;4.83;;
70303;SDS011;57712;48.752;11.348;2022-07-29T04:34:53;8.50;;;5.10;;
70303;SDS011;57712;48.752;11.348;2022-07-29T04:37:19;8.02;;;5.63;;
70303;SDS011;57712;48.752;11.348;2022-07-29T04:39:46;8.73;;;5.30;;
70303;SDS011;57712;48.752;11.348;2022-07-29T04:42:12;8.48;;;5.78;;
70303;SDS011;57712;48.752;11.348;2022-07-29T04:44:39;8.93;;;5.97;;
70303;SDS011;57712;48.752;11.348;2022-07-29T04:47:08;8.90;;;5.93;;
70303;SDS011;57712;48.752;11.348;2022-07-29T04:49:37;9.15;;;6.63;;
70303;SDS011;57712;48.752;11.348;2022-07-29T04:52:04;9.43;;;5.97;;
70303;SDS011;57712;48.752;11.348;2022-07-29T04:54:31;7.90;;;5.53;;
70303;SDS011;57712;48.752;11.348;2022-07-29T04:56:57;7.13;;;4.53;;
70303;SDS011;57712;48.752;11.348;2022-07-29T04:59:24;6.65;;;4.18;;
70303;SDS011;57712;48.752;11.348;2022-07-29T05:01:52;7.88;;;4.20;;
70303;SDS011;57712;48.752;11.348;2022-07-29T05:04:19;7.45;;;4.75;;
70303;SDS011;57712;48.752;11.348;2022-07-29T05:06:46;7.90;;;5.18;;
70303;SDS011;57712;48.752;11.348;2022-07-29T05:09:12;9.13;;;5.13;;
70303;SDS011;57712;48.752;11.348;2022-07-29T05:11:39;10.77;;;5.63;;
70303;SDS011;57712;48.752;11.348;2022-07-29T05:14:06;9.35;;;6.20;;
70303;SDS011;57712;48.752;11.348;2022-07-29T05:16:32;8.38;;;5.63;;
70303;SDS011;57712;48.752;11.348;2022-07-29T05:18:59;7.70;;;5.57;;
70303;SDS011;57712;48.752;11.348;2022-07-29T05:21:26;9.20;;;6.33;;
70303;SDS011;57712;48.752;11.348;2022-07-29T05:23:52;8.48;;;5.57;;
70303;SDS011;57712;48.752;11.348;2022-07-29T05:26:19;10.60;;;6.43;;
70303;SDS011;57712;48.752;11.348;2022-07-29T05:28:45;8.60;;;5.55;;
70303;SDS011;57712;48.752;11.348;2022-07-29T05:31:12;11.93;;;5.57;;
70303;SDS011;57712;48.752;11.348;2022-07-29T05:33:41;9.67;;;5.00;;
70303;SDS011;57712;48.752;11.348;2022-07-29T05:36:07;8.68;;;5.57;;
70303;SDS011;57712;48.752;11.348;2022-07-29T05:38:34;8.02;;;4.90;;
70303;SDS011;57712;48.752;11.348;2022-07-29T05:41:02;10.40;;;5.28;;
70303;SDS011;57712;48.752;11.348;2022-07-29T05:43:29;8.05;;;5.30;;
70303;SDS011;57712;48.752;11.348;2022-07-29T05:45:56;6.87;;;4.80;;
70303;SDS011;57712;48.752;11.348;2022-07-29T05:48:23;9.25;;;5.05;;
70303;SDS011;57712;48.752;11.348;2022-07-29T05:50:49;8.55;;;5.28;;
70303;SDS011;57712;48.752;11.348;2022-07-29T05:53:16;7.88;;;4.35;;
70303;SDS011;57712;48.752;11.348;2022-07-29T05:55:46;7.95;;;5.25;;
70303;SDS011;57712;48.752;11.348;2022-07-29T05:58:13;6.57;;;3.90;;
70303;SDS011;57712;48.752;11.348;2022-07-29T06:00:39;9.20;;;4.03;;
70303;SDS011;57712;48.752;11.348;2022-07-29T06:03:06;6.85;;;3.83;;
70303;SDS011;57712;48.752;11.348;2022-07-29T06:05:33;6.68;;;3.33;;
70303;SDS011;57712;48.752;11.348;2022-07-29T06:07:59;5.63;;;3.38;;
70303;SDS011;57712;48.752;11.348;2022-07-29T06:10:26;7.33;;;3.23;;
70303;SDS011;57712;48.752;11.348;2022-07-29T06:12:53;6.07;;;3.25;;
70303;SDS011;57712;48.752;11.348;2022-07-29T06:15:19;7.22;;;3.65;;
70303;SDS011;57712;48.752;11.348;2022-07-29T06:17:46;6.68;;;3.33;;
70303;SDS011;57712;48.752;11.348;2022-07-29T06:20:25;6.53;;;3.33;;
70303;SDS011;57712;48.752;11.348;2022-07-29T06:22:52;5.87;;;3.33;;
70303;SDS011;57712;48.752;11.348;2022-07-29T06:25:19;6.35;;;3.42;;
70303;SDS011;57712;48.752;11.348;2022-07-29T06:27:45;6.22;;;2.97;;
70303;SDS011;57712;48.752;11.348;2022-07-29T06:30:12;6.63;;;2.90;;
70303;SDS011;57712;48.752;11.348;2022-07-29T06:32:39;6.55;;;3.40;;
70303;SDS011;57712;48.752;11.348;2022-07-29T06:35:08;6.00;;;2.97;;
70303;SDS011;57712;48.752;11.348;2022-07-29T06:37:55;5.55;;;2.90;;
70303;SDS011;57712;48.752;11.348;2022-07-29T06:40:25;6.15;;;2.88;;
70303;SDS011;57712;48.752;11.348;2022-07-29T06:43:10;4.97;;;2.88;;
70303;SDS011;57712;48.752;11.348;2022-07-29T06:45:36;6.68;;;3.05;;
70303;SDS011;57712;48.752;11.348;2022-07-29T06:48:07;5.63;;;2.90;;
70303;SDS011;57712;48.752;11.348;2022-07-29T06:50:34;6.32;;;2.75;;
70303;SDS011;57712;48.752;11.348;2022-07-29T06:53:00;7.50;;;2.90;;
70303;SDS011;57712;48.752;11.348;2022-07-29T06:55:27;6.15;;;3.10;;
70303;SDS011;57712;48.752;11.348;2022-07-29T06:57:53;5.10;;;2.40;;
70303;SDS011;57712;48.752;11.348;2022-07-29T07:00:20;12.30;;;3.10;;
70303;SDS011;57712;48.752;11.348;2022-07-29T07:02:46;4.63;;;2.20;;
70303;SDS011;57712;48.752;11.348;2022-07-29T07:05:14;6.07;;;3.00;;
70303;SDS011;57712;48.752;11.348;2022-07-29T07:07:40;6.40;;;2.60;;
70303;SDS011;57712;48.752;11.348;2022-07-29T07:10:07;7.15;;;2.65;;
70303;SDS011;57712;48.752;11.348;2022-07-29T07:12:34;5.20;;;2.30;;
70303;SDS011;57712;48.752;11.348;2022-07-29T07:15:00;5.35;;;2.70;;
70303;SDS011;57712;48.752;11.348;2022-07-29T07:17:27;5.13;;;2.72;;
70303;SDS011;57712;48.752;11.348;2022-07-29T07:19:53;6.38;;;2.53;;
70303;SDS011;57712;48.752;11.348;2022-07-29T07:22:20;6.28;;;2.55;;
70303;SDS011;57712;48.752;11.348;2022-07-29T07:24:47;6.00;;;2.40;;
70303;SDS011;57712;48.752;11.348;2022-07-29T07:27:13;5.00;;;2.75;;
70303;SDS011;57712;48.752;11.348;2022-07-29T07:29:40;5.45;;;2.85;;
70303;SDS011;57712;48.752;11.348;2022-07-29T07:32:09;5.10;;;2.50;;
70303;SDS011;57712;48.752;11.348;2022-07-29T07:34:36;5.47;;;2.85;;
70303;SDS011;57712;48.752;11.348;2022-07-29T07:37:04;5.33;;;2.60;;
70303;SDS011;57712;48.752;11.348;2022-07-29T07:39:31;4.78;;;2.55;;
70303;SDS011;57712;48.752;11.348;2022-07-29T07:41:57;6.95;;;2.83;;
70303;SDS011;57712;48.752;11.348;2022-07-29T07:44:24;6.50;;;2.67;;
70303;SDS011;57712;48.752;11.348;2022-07-29T07:46:50;6.63;;;3.17;;
70303;SDS011;57712;48.752;11.348;2022-07-29T07:49:19;5.07;;;2.63;;
70303;SDS011;57712;48.752;11.348;2022-07-29T07:51:46;6.72;;;3.00;;
70303;SDS011;57712;48.752;11.348;2022-07-29T07:54:16;6.25;;;3.22;;
70303;SDS011;57712;48.752;11.348;2022-07-29T07:56:46;5.57;;;2.78;;
70303;SDS011;57712;48.752;11.348;2022-07-29T07:59:18;8.00;;;2.90;;
70303;SDS011;57712;48.752;11.348;2022-07-29T08:01:45;6.23;;;2.57;;
70303;SDS011;57712;48.752;11.348;2022-07-29T08:04:21;4.82;;;2.60;;
70303;SDS011;57712;48.752;11.348;2022-07-29T08:06:53;5.93;;;2.97;;
70303;SDS011;57712;48.752;11.348;2022-07-29T08:09:21;5.60;;;2.78;;
70303;SDS011;57712;48.752;11.348;2022-07-29T08:11:56;5.75;;;3.15;;
70303;SDS011;57712;48.752;11.348;2022-07-29T08:14:25;6.10;;;2.50;;
70303;SDS011;57712;48.752;11.348;2022-07-29T08:16:51;4.72;;;2.83;;
70303;SDS011;57712;48.752;11.348;2022-07-29T08:19:18;6.05;;;2.83;;
70303;SDS011;57712;48.752;11.348;2022-07-29T08:21:44;5.30;;;2.97;;
70303;SDS011;57712;48.752;11.348;2022-07-29T08:24:11;5.15;;;2.90;;
70303;SDS011;57712;48.752;11.348;2022-07-29T08:26:56;5.50;;;2.37;;
70303;SDS011;57712;48.752;11.348;2022-07-29T08:29:23;5.82;;;2.72;;
70303;SDS011;57712;48.752;11.348;2022-07-29T08:31:49;5.47;;;2.67;;
70303;SDS011;57712;48.752;11.348;2022-07-29T08:34:16;4.68;;;2.67;;
70303;SDS011;57712;48.752;11.348;2022-07-29T08:36:43;7.45;;;3.33;;
70303;SDS011;57712;48.752;11.348;2022-07-29T08:39:15;5.30;;;2.87;;
70303;SDS011;57712;48.752;11.348;2022-07-29T08:41:41;5.07;;;2.40;;
70303;SDS011;57712;48.752;11.348;2022-07-29T08:44:22;5.65;;;2.80;;
70303;SDS011;57712;48.752;11.348;2022-07-29T08:46:56;5.88;;;3.33;;
70303;SDS011;57712;48.752;11.348;2022-07-29T08:49:23;6.47;;;3.53;;
70303;SDS011;57712;48.752;11.348;2022-07-29T08:51:50;11.63;;;4.63;;
70303;SDS011;57712;48.752;11.348;2022-07-29T08:54:18;6.40;;;3.10;;
70303;SDS011;57712;48.752;11.348;2022-07-29T08:56:48;6.15;;;3.40;;
70303;SDS011;57712;48.752;11.348;2022-07-29T08:59:16;5.97;;;3.33;;
70303;SDS011;57712;48.752;11.348;2022-07-29T09:01:48;10.05;;;4.05;;
70303;SDS011;57712;48.752;11.348;2022-07-29T09:04:17;7.90;;;3.53;;
70303;SDS011;57712;48.752;11.348;2022-07-29T09:06:47;16.52;;;5.82;;
70303;SDS011;57712;48.752;11.348;2022-07-29T09:09:15;5.43;;;3.08;;
70303;SDS011;57712;48.752;11.348;2022-07-29T09:11:42;7.35;;;2.88;;
70303;SDS011;57712;48.752;11.348;2022-07-29T09:14:11;5.43;;;2.78;;
70303;SDS011;57712;48.752;11.348;2022-07-29T09:16:45;4.90;;;2.57;;
70303;SDS011;57712;48.752;11.348;2022-07-29T09:19:23;5.38;;;2.88;;
70303;SDS011;57712;48.752;11.348;2022-07-29T09:21:55;5.22;;;3.05;;
70303;SDS011;57712;48.752;11.348;2022-07-29T09:24:36;7.82;;;3.42;;
70303;SDS011;57712;48.752;11.348;2022-07-29T09:27:07;5.30;;;2.92;;
70303;SDS011;57712;48.752;11.348;2022-07-29T09:29:36;5.13;;;2.60;;
70303;SDS011;57712;48.752;11.348;2022-07-29T09:32:05;6.40;;;3.25;;
70303;SDS011;57712;48.752;11.348;2022-07-29T09:34:36;6.45;;;3.67;;
70303;SDS011;57712;48.752;11.348;2022-07-29T09:37:03;5.32;;;2.92;;
70303;SDS011;57712;48.752;11.348;2022-07-29T09:39:34;4.93;;;2.33;;
70303;SDS011;57712;48.752;11.348;2022-07-29T09:42:03;5.83;;;2.60;;
70303;SDS011;57712;48.752;11.348;2022-07-29T09:44:52;5.43;;;3.10;;
70303;SDS011;57712;48.752;11.348;2022-07-29T09:47:18;4.80;;;2.20;;
70303;SDS011;57712;48.752;11.348;2022-07-29T09:49:52;5.13;;;2.33;;
70303;SDS011;57712;48.752;11.348;2022-07-29T09:52:19;5.00;;;2.63;;
70303;SDS011;57712;48.752;11.348;2022-07-29T09:54:45;5.73;;;2.57;;
70303;SDS011;57712;48.752;11.348;2022-07-29T09:57:28;5.10;;;2.90;;
70303;SDS011;57712;48.752;11.348;2022-07-29T09:59:57;5.00;;;3.00;;
70303;SDS011;57712;48.752;11.348;2022-07-29T10:02:29;5.03;;;2.67;;
70303;SDS011;57712;48.752;11.348;2022-07-29T10:04:58;5.38;;;2.97;;
70303;SDS011;57712;48.752;11.348;2022-07-29T10:07:25;4.90;;;2.60;;
70303;SDS011;57712;48.752;11.348;2022-07-29T10:09:56;5.90;;;2.65;;
70303;SDS011;57712;48.752;11.348;2022-07-29T10:12:23;5.90;;;3.13;;
70303;SDS011;57712;48.752;11.348;2022-07-29T10:14:50;6.20;;;3.10;;
70303;SDS011;57712;48.752;11.348;2022-07-29T10:17:17;6.70;;;3.03;;
70303;SDS011;57712;48.752;11.348;2022-07-29T10:19:45;8.07;;;2.87;;
70303;SDS011;57712;48.752;11.348;2022-07-29T10:22:13;6.00;;;2.85;;
70303;SDS011;57712;48.752;11.348;2022-07-29T10:24:40;5.05;;;2.88;;
70303;SDS011;57712;48.752;11.348;2022-07-29T10:27:07;4.82;;;2.50;;
70303;SDS011;57712;48.752;11.348;2022-07-29T10:29:34;5.72;;;3.10;;
70303;SDS011;57712;48.752;11.348;2022-07-29T10:43:27;5.00;;;2.40;;
70303;SDS011;57712;48.752;11.348;2022-07-29T10:45:57;4.60;;;3.23;;
70303;SDS011;57712;48.752;11.348;2022-07-29T10:48:26;4.57;;;2.85;;
70303;SDS011;57712;48.752;11.348;2022-07-29T10:50:53;5.95;;;2.85;;
70303;SDS011;57712;48.752;11.348;2022-07-29T10:53:48;4.85;;;2.65;;
70303;SDS011;57712;48.752;11.348;2022-07-29T10:56:24;4.70;;;2.60;;
70303;SDS011;57712;48.752;11.348;2022-07-29T11:01:49;4.45;;;2.55;;
70303;SDS011;57712;48.752;11.348;2022-07-29T11:07:11;5.78;;;2.78;;
70303;SDS011;57712;48.752;11.348;2022-07-29T11:09:40;4.53;;;2.35;;
70303;SDS011;57712;48.752;11.348;2022-07-29T11:15:05;4.63;;;2.67;;
70303;SDS011;57712;48.752;11.348;2022-07-29T11:28:50;4.38;;;2.10;;
70303;SDS011;57712;48.752;11.348;2022-07-29T11:39:33;4.93;;;2.10;;
70303;SDS011;57712;48.752;11.348;2022-07-29T11:47:59;3.88;;;1.70;;
70303;SDS011;57712;48.752;11.348;2022-07-29T11:50:46;4.20;;;1.85;;
70303;SDS011;57712;48.752;11.348;2022-07-29T11:53:13;3.93;;;1.90;;
70303;SDS011;57712;48.752;11.348;2022-07-29T11:55:41;4.10;;;2.30;;
70303;SDS011;57712;48.752;11.348;2022-07-29T11:58:28;3.70;;;1.70;;
70303;SDS011;57712;48.752;11.348;2022-07-29T12:00:55;3.95;;;1.95;;
70303;SDS011;57712;48.752;11.348;2022-07-29T12:03:24;3.65;;;1.42;;
70303;SDS011;57712;48.752;11.348;2022-07-29T12:06:00;4.67;;;1.67;;
70303;SDS011;57712;48.752;11.348;2022-07-29T12:08:27;5.55;;;2.15;;
70303;SDS011;57712;48.752;11.348;2022-07-29T12:10:55;5.03;;;2.67;;
70303;SDS011;57712;48.752;11.348;2022-07-29T12:13:22;5.45;;;2.35;;
70303;SDS011;57712;48.752;11.348;2022-07-29T12:16:03;5.40;;;2.80;;
70303;SDS011;57712;48.752;11.348;2022-07-29T12:18:30;5.07;;;2.17;;
70303;SDS011;57712;48.752;11.348;2022-07-29T12:20:58;5.15;;;2.25;;
70303;SDS011;57712;48.752;11.348;2022-07-29T12:23:29;4.65;;;2.80;;
70303;SDS011;57712;48.752;11.348;2022-07-29T12:26:00;4.57;;;2.40;;
70303;SDS011;57712;48.752;11.348;2022-07-29T12:28:27;5.57;;;2.72;;
70303;SDS011;57712;48.752;11.348;2022-07-29T12:30:53;4.50;;;2.47;;
70303;SDS011;57712;48.752;11.348;2022-07-29T12:33:23;5.05;;;2.75;;
70303;SDS011;57712;48.752;11.348;2022-07-29T12:35:58;5.45;;;2.50;;
70303;SDS011;57712;48.752;11.348;2022-07-29T12:38:32;5.25;;;2.83;;
70303;SDS011;57712;48.752;11.348;2022-07-29T12:41:01;6.45;;;3.05;;
70303;SDS011;57712;48.752;11.348;2022-07-29T12:43:29;5.10;;;2.80;;
70303;SDS011;57712;48.752;11.348;2022-07-29T12:45:56;4.95;;;2.35;;
70303;SDS011;57712;48.752;11.348;2022-07-29T12:48:33;4.68;;;2.42;;
70303;SDS011;57712;48.752;11.348;2022-07-29T12:51:01;6.20;;;3.38;;
70303;SDS011;57712;48.752;11.348;2022-07-29T12:53:29;5.65;;;3.03;;
70303;SDS011;57712;48.752;11.348;2022-07-29T12:55:56;5.50;;;2.87;;
70303;SDS011;57712;48.752;11.348;2022-07-29T13:01:03;7.00;;;3.78;;
70303;SDS011;57712;48.752;11.348;2022-07-29T13:06:32;6.90;;;3.50;;
70303;SDS011;57712;48.752;11.348;2022-07-29T13:09:00;6.90;;;3.33;;
70303;SDS011;57712;48.752;11.348;2022-07-29T13:11:50;6.20;;;3.22;;
70303;SDS011;57712;48.752;11.348;2022-07-29T13:17:06;5.53;;;3.35;;
70303;SDS011;57712;48.752;11.348;2022-07-29T13:19:42;6.57;;;3.55;;
70303;SDS011;57712;48.752;11.348;2022-07-29T13:22:23;7.17;;;3.30;;
70303;SDS011;57712;48.752;11.348;2022-07-29T13:24:51;6.82;;;3.63;;
70303;SDS011;57712;48.752;11.348;2022-07-29T13:27:27;7.13;;;3.85;;
70303;SDS011;57712;48.752;11.348;2022-07-29T13:29:56;8.10;;;3.67;;
70303;SDS011;57712;48.752;11.348;2022-07-29T13:32:24;6.35;;;3.50;;
70303;SDS011;57712;48.752;11.348;2022-07-29T13:34:57;7.53;;;3.47;;
70303;SDS011;57712;48.752;11.348;2022-07-29T13:37:26;6.80;;;3.67;;
70303;SDS011;57712;48.752;11.348;2022-07-29T13:39:56;7.13;;;3.47;;
70303;SDS011;57712;48.752;11.348;2022-07-29T13:42:23;7.90;;;3.50;;
70303;SDS011;57712;48.752;11.348;2022-07-29T13:44:50;6.32;;;3.85;;
70303;SDS011;57712;48.752;11.348;2022-07-29T13:47:18;7.07;;;3.63;;
70303;SDS011;57712;48.752;11.348;2022-07-29T13:49:58;7.38;;;4.00;;
70303;SDS011;57712;48.752;11.348;2022-07-29T13:52:25;8.30;;;3.90;;
70303;SDS011;57712;48.752;11.348;2022-07-29T13:54:52;8.45;;;3.90;;
70303;SDS011;57712;48.752;11.348;2022-07-29T13:57:18;8.00;;;4.18;;
70303;SDS011;57712;48.752;11.348;2022-07-29T13:59:45;8.20;;;4.10;;
70303;SDS011;57712;48.752;11.348;2022-07-29T14:02:18;7.75;;;4.80;;
70303;SDS011;57712;48.752;11.348;2022-07-29T14:04:45;6.53;;;4.00;;
70303;SDS011;57712;48.752;11.348;2022-07-29T14:07:11;6.40;;;4.20;;
70303;SDS011;57712;48.752;11.348;2022-07-29T14:09:41;7.85;;;4.38;;
70303;SDS011;57712;48.752;11.348;2022-07-29T14:12:08;8.47;;;4.00;;
70303;SDS011;57712;48.752;11.348;2022-07-29T14:14:35;7.18;;;4.13;;
70303;SDS011;57712;48.752;11.348;2022-07-29T14:17:03;7.43;;;4.05;;
70303;SDS011;57712;48.752;11.348;2022-07-29T14:19:32;6.72;;;3.95;;
70303;SDS011;57712;48.752;11.348;2022-07-29T14:22:02;6.10;;;4.32;;
70303;SDS011;57712;48.752;11.348;2022-07-29T14:24:32;7.90;;;4.23;;
70303;SDS011;57712;48.752;11.348;2022-07-29T14:27:02;6.05;;;3.58;;
70303;SDS011;57712;48.752;11.348;2022-07-29T14:29:29;7.60;;;4.47;;
70303;SDS011;57712;48.752;11.348;2022-07-29T14:32:04;8.70;;;4.47;;
70303;SDS011;57712;48.752;11.348;2022-07-29T14:34:32;7.15;;;3.95;;
70303;SDS011;57712;48.752;11.348;2022-07-29T14:36:59;10.00;;;4.37;;
70303;SDS011;57712;48.752;11.348;2022-07-29T14:39:25;6.75;;;4.15;;
70303;SDS011;57712;48.752;11.348;2022-07-29T14:41:57;7.05;;;4.57;;
70303;SDS011;57712;48.752;11.348;2022-07-29T14:44:24;6.80;;;4.20;;
70303;SDS011;57712;48.752;11.348;2022-07-29T14:46:57;6.28;;;4.63;;
70303;SDS011;57712;48.752;11.348;2022-07-29T14:49:26;8.50;;;5.17;;
70303;SDS011;57712;48.752;11.348;2022-07-29T14:51:53;8.70;;;4.80;;
70303;SDS011;57712;48.752;11.348;2022-07-29T14:54:20;8.05;;;4.85;;
70303;SDS011;57712;48.752;11.348;2022-07-29T14:56:47;7.18;;;4.50;;
70303;SDS011;57712;48.752;11.348;2022-07-29T14:59:15;6.25;;;3.70;;
70303;SDS011;57712;48.752;11.348;2022-07-29T15:01:42;8.23;;;4.40;;
70303;SDS011;57712;48.752;11.348;2022-07-29T15:04:09;8.60;;;4.82;;
70303;SDS011;57712;48.752;11.348;2022-07-29T15:06:36;6.18;;;4.53;;
70303;SDS011;57712;48.752;11.348;2022-07-29T15:09:02;7.47;;;4.53;;
70303;SDS011;57712;48.752;11.348;2022-07-29T15:11:29;7.15;;;4.13;;
70303;SDS011;57712;48.752;11.348;2022-07-29T15:14:02;8.20;;;4.57;;
70303;SDS011;57712;48.752;11.348;2022-07-29T15:16:28;7.75;;;3.90;;
70303;SDS011;57712;48.752;11.348;2022-07-29T15:18:55;6.82;;;3.83;;
70303;SDS011;57712;48.752;11.348;2022-07-29T15:21:26;6.18;;;3.53;;
70303;SDS011;57712;48.752;11.348;2022-07-29T15:23:53;8.13;;;4.15;;
70303;SDS011;57712;48.752;11.348;2022-07-29T15:26:19;8.20;;;3.60;;
70303;SDS011;57712;48.752;11.348;2022-07-29T15:28:46;6.28;;;3.55;;
70303;SDS011;57712;48.752;11.348;2022-07-29T15:31:12;6.35;;;3.90;;
70303;SDS011;57712;48.752;11.348;2022-07-29T15:33:39;7.55;;;3.88;;
70303;SDS011;57712;48.752;11.348;2022-07-29T15:36:06;7.38;;;3.70;;
70303;SDS011;57712;48.752;11.348;2022-07-29T15:38:33;9.47;;;3.90;;
70303;SDS011;57712;48.752;11.348;2022-07-29T15:40:59;6.07;;;3.40;;
70303;SDS011;57712;48.752;11.348;2022-07-29T15:43:26;6.68;;;3.20;;
70303;SDS011;57712;48.752;11.348;2022-07-29T15:45:53;6.70;;;3.22;;
70303;SDS011;57712;48.752;11.348;2022-07-29T15:48:38;7.20;;;3.63;;
70303;SDS011;57712;48.752;11.348;2022-07-29T15:51:05;5.90;;;3.03;;
70303;SDS011;57712;48.752;11.348;2022-07-29T15:53:32;5.63;;;3.30;;
70303;SDS011;57712;48.752;11.348;2022-07-29T15:56:00;4.97;;;2.85;;
70303;SDS011;57712;48.752;11.348;2022-07-29T15:58:27;6.60;;;3.10;;